createdAt,value
2023-02-11T00:01:32.062Z,43.65
2023-02-11T00:04:00.062Z,28.25
2023-02-11T00:06:28.195Z,26.98
2023-02-11T00:08:56.038Z,25.88
2023-02-11T00:11:25.503Z,30.52
2023-02-11T00:13:52.940Z,29.73
2023-02-11T00:16:21.383Z,25.73
2023-02-11T00:18:48.926Z,30.52
2023-02-11T00:21:20.046Z,33.25
2023-02-11T00:23:47.803Z,31.90
2023-02-11T00:26:16.395Z,33.22
2023-02-11T00:28:44.006Z,44.65
2023-02-11T00:31:11.866Z,32.88
2023-02-11T00:33:39.335Z,45.63
2023-02-11T00:36:14.631Z,38.97
2023-02-11T00:38:43.852Z,41.97
2023-02-11T00:41:11.512Z,38.75
2023-02-11T00:43:38.819Z,44.45
2023-02-11T00:46:06.565Z,39.00
2023-02-11T00:48:34.358Z,37.63
2023-02-11T00:51:01.950Z,28.48
2023-02-11T00:53:29.268Z,34.38
2023-02-11T00:55:56.651Z,27.30
2023-02-11T00:58:26.347Z,31.52
2023-02-11T01:00:54.922Z,32.17
2023-02-11T01:03:22.455Z,31.08
2023-02-11T01:05:50.219Z,30.83
2023-02-11T01:08:17.833Z,32.78
2023-02-11T01:10:45.617Z,34.08
2023-02-11T01:13:12.992Z,29.77
2023-02-11T01:15:40.424Z,29.23
2023-02-11T01:18:07.948Z,34.00
2023-02-11T01:20:35.370Z,28.98
2023-02-11T01:23:02.762Z,31.52
2023-02-11T01:25:30.126Z,29.60
2023-02-11T01:27:57.477Z,30.25
2023-02-11T01:30:25.061Z,32.83
2023-02-11T01:32:52.360Z,39.53
2023-02-11T01:35:19.745Z,31.27
2023-02-11T01:37:47.095Z,29.23
2023-02-11T01:40:15.945Z,24.38
2023-02-11T01:42:43.922Z,36.97
2023-02-11T01:45:30.215Z,31.83
2023-02-11T01:47:57.767Z,34.15
2023-02-11T01:50:25.157Z,28.50
2023-02-11T01:52:52.536Z,29.88
2023-02-11T01:55:38.544Z,32.25
2023-02-11T01:58:06.020Z,27.67
2023-02-11T02:00:37.898Z,34.22
2023-02-11T02:05:35.630Z,26.85
2023-02-11T02:08:15.806Z,26.75
2023-02-11T02:10:44.567Z,32.38
2023-02-11T02:13:12.011Z,31.52
2023-02-11T02:15:40.242Z,28.17
2023-02-11T02:18:26.361Z,27.73
2023-02-11T02:21:09.044Z,27.92
2023-02-11T02:23:41.515Z,27.95
2023-02-11T02:26:14.843Z,32.45
2023-02-11T02:28:56.443Z,25.65
2023-02-11T02:31:34.639Z,27.63
2023-02-11T02:34:04.392Z,30.30
2023-02-11T02:36:35.381Z,33.60
2023-02-11T02:39:10.829Z,29.77
2023-02-11T02:41:39.462Z,29.58
2023-02-11T02:44:08.010Z,39.55
2023-02-11T02:46:35.886Z,41.83
2023-02-11T02:49:03.824Z,32.78
2023-02-11T02:51:46.540Z,38.20
2023-02-11T02:54:13.927Z,35.40
2023-02-11T02:56:45.358Z,30.10
2023-02-11T02:59:12.687Z,40.03
2023-02-11T03:01:43.020Z,38.60
2023-02-11T03:04:18.537Z,34.47
2023-02-11T03:06:48.848Z,40.03
2023-02-11T03:09:21.071Z,38.17
2023-02-11T03:11:48.882Z,41.70
2023-02-11T03:14:17.808Z,33.80
2023-02-11T03:19:41.899Z,41.15
2023-02-11T03:22:12.426Z,38.80
2023-02-11T03:24:40.688Z,35.63
2023-02-11T03:27:13.044Z,30.95
2023-02-11T03:29:40.339Z,37.90
2023-02-11T03:32:16.048Z,33.17
2023-02-11T03:34:49.651Z,36.35
2023-02-11T03:37:20.533Z,37.65
2023-02-11T03:40:14.029Z,35.78
2023-02-11T03:42:46.740Z,37.20
2023-02-11T03:45:16.249Z,46.38
2023-02-11T03:47:46.487Z,39.88
2023-02-11T03:50:15.363Z,35.08
2023-02-11T03:52:43.111Z,45.75
2023-02-11T03:55:13.108Z,44.42
2023-02-11T03:57:40.502Z,35.60
2023-02-11T04:00:08.438Z,42.10
2023-02-11T04:02:45.040Z,34.95
2023-02-11T04:05:13.946Z,31.38
2023-02-11T04:07:41.230Z,36.72
2023-02-11T04:10:09.252Z,33.38
2023-02-11T04:12:36.569Z,43.92
2023-02-11T04:15:04.053Z,36.40
2023-02-11T04:17:31.489Z,41.47
2023-02-11T04:19:58.867Z,42.00
2023-02-11T04:22:26.224Z,50.50
2023-02-11T04:24:53.614Z,39.95
2023-02-11T04:27:20.927Z,40.47
2023-02-11T04:29:48.343Z,39.67
2023-02-11T04:32:15.956Z,37.22
2023-02-11T04:34:43.218Z,35.75
2023-02-11T04:37:10.543Z,36.35
2023-02-11T04:39:37.896Z,42.03
2023-02-11T04:42:05.339Z,43.83
2023-02-11T04:44:32.745Z,43.50
2023-02-11T04:47:00.173Z,34.05
2023-02-11T04:49:27.518Z,34.10
2023-02-11T04:51:55.022Z,31.75
2023-02-11T04:54:22.455Z,34.15
2023-02-11T04:56:50.984Z,39.85
2023-02-11T04:59:18.336Z,38.00
2023-02-11T05:01:45.710Z,34.75
2023-02-11T05:04:13.107Z,33.83
2023-02-11T05:06:40.472Z,31.67
2023-02-11T05:09:07.951Z,34.67
2023-02-11T05:11:36.642Z,35.22
2023-02-11T05:14:03.999Z,35.38
2023-02-11T05:16:31.432Z,35.28
2023-02-11T05:18:58.812Z,38.17
2023-02-11T05:21:26.449Z,35.05
2023-02-11T05:23:53.744Z,40.53
2023-02-11T05:26:21.127Z,33.13
2023-02-11T05:28:48.479Z,33.85
2023-02-11T05:31:16.808Z,36.70
2023-02-11T05:33:44.293Z,37.85
2023-02-11T05:36:13.287Z,37.17
2023-02-11T05:38:42.578Z,28.13
2023-02-11T05:41:10.390Z,33.05
2023-02-11T05:43:37.770Z,29.67
2023-02-11T05:46:05.447Z,31.02
2023-02-11T05:48:32.857Z,34.55
2023-02-11T05:51:00.188Z,35.85
2023-02-11T05:53:27.999Z,34.40
2023-02-11T05:55:55.428Z,34.33
2023-02-11T05:58:22.764Z,34.88
2023-02-11T06:00:50.091Z,30.95
2023-02-11T06:03:17.461Z,36.47
2023-02-11T06:05:48.350Z,35.97
2023-02-11T06:08:28.160Z,27.50
2023-02-11T06:10:55.870Z,33.20
2023-02-11T06:13:24.803Z,24.92
2023-02-11T06:16:05.141Z,36.45
2023-02-11T06:18:35.568Z,38.55
2023-02-11T06:21:03.372Z,29.25
2023-02-11T06:23:30.683Z,36.65
2023-02-11T06:26:02.087Z,39.50
2023-02-11T06:28:31.425Z,36.92
2023-02-11T06:31:00.316Z,34.70
2023-02-11T06:33:29.045Z,34.80
2023-02-11T06:35:56.383Z,35.08
2023-02-11T06:38:23.691Z,37.55
2023-02-11T06:40:51.212Z,40.45
2023-02-11T06:43:18.736Z,38.33
2023-02-11T06:45:46.038Z,37.00
2023-02-11T06:48:13.432Z,46.85
2023-02-11T06:50:40.891Z,36.28
2023-02-11T06:53:08.182Z,39.75
2023-02-11T06:55:36.015Z,41.90
2023-02-11T06:58:03.437Z,38.15
2023-02-11T07:00:31.271Z,39.20
2023-02-11T07:02:58.627Z,38.60
2023-02-11T07:05:26.051Z,38.30
2023-02-11T07:07:53.384Z,37.75
2023-02-11T07:10:20.688Z,37.28
2023-02-11T07:12:48.011Z,33.55
2023-02-11T07:15:15.380Z,36.42
2023-02-11T07:17:42.736Z,34.78
2023-02-11T07:20:12.425Z,41.67
2023-02-11T07:22:39.855Z,33.70
2023-02-11T07:25:07.315Z,37.75
2023-02-11T07:27:34.930Z,39.58
2023-02-11T07:30:03.420Z,38.00
2023-02-11T07:32:32.224Z,41.45
2023-02-11T07:34:59.641Z,42.13
2023-02-11T07:37:27.019Z,31.67
2023-02-11T07:39:54.333Z,29.40
2023-02-11T07:42:21.683Z,43.65
2023-02-11T07:44:50.519Z,39.58
2023-02-11T07:47:18.314Z,43.15
2023-02-11T07:49:46.143Z,39.05
2023-02-11T07:52:13.493Z,39.20
2023-02-11T07:54:40.924Z,37.80
2023-02-11T07:57:08.499Z,36.75
2023-02-11T07:59:35.893Z,38.63
2023-02-11T08:02:03.268Z,45.55
2023-02-11T08:04:30.580Z,45.40
2023-02-11T08:06:59.307Z,35.13
2023-02-11T08:09:26.756Z,39.55
2023-02-11T08:11:54.100Z,41.63
2023-02-11T08:14:21.439Z,44.15
2023-02-11T08:16:48.902Z,43.30
2023-02-11T08:19:17.333Z,41.35
2023-02-11T08:21:44.871Z,42.55
2023-02-11T08:24:12.883Z,44.50
2023-02-11T08:26:40.467Z,43.88
2023-02-11T08:29:09.876Z,38.92
2023-02-11T08:31:39.672Z,35.97
2023-02-11T08:34:07.410Z,45.50
2023-02-11T08:36:36.110Z,47.53
2023-02-11T08:39:18.227Z,37.38
2023-02-11T08:41:48.755Z,43.47
2023-02-11T08:44:16.366Z,41.13
2023-02-11T08:46:43.710Z,46.90
2023-02-11T08:49:11.032Z,38.10
2023-02-11T08:51:38.528Z,49.80
2023-02-11T08:54:09.399Z,46.72
2023-02-11T08:56:37.615Z,40.28
2023-02-11T08:59:05.185Z,41.80
2023-02-11T09:01:33.016Z,48.00
2023-02-11T09:04:01.128Z,38.78
2023-02-11T09:06:28.713Z,42.60
2023-02-11T09:08:56.884Z,43.47
2023-02-11T09:11:32.326Z,36.20
2023-02-11T09:13:59.950Z,46.17
2023-02-11T09:16:28.948Z,47.08
2023-02-11T09:19:00.315Z,45.78
2023-02-11T09:21:28.289Z,42.50
2023-02-11T09:23:55.657Z,39.95
2023-02-11T09:26:27.661Z,43.10
2023-02-11T09:31:23.538Z,40.10
2023-02-11T09:33:52.957Z,41.20
2023-02-11T09:36:21.403Z,46.88
2023-02-11T09:38:49.186Z,45.88
2023-02-11T09:41:27.992Z,38.53
2023-02-11T09:44:00.855Z,43.60
2023-02-11T09:46:30.920Z,49.00
2023-02-11T09:48:58.716Z,47.97
2023-02-11T09:51:46.360Z,46.28
2023-02-11T09:54:33.944Z,49.17
2023-02-11T09:57:01.309Z,43.42
2023-02-11T09:59:28.663Z,40.80
2023-02-11T10:01:56.411Z,51.13
2023-02-11T10:04:45.733Z,47.75
2023-02-11T10:07:22.402Z,48.95
2023-02-11T10:10:08.698Z,55.67
2023-02-11T10:12:36.068Z,45.42
2023-02-11T10:15:15.472Z,49.88
2023-02-11T10:17:46.561Z,42.28
2023-02-11T10:20:24.948Z,45.10
2023-02-11T10:23:00.979Z,43.90
2023-02-11T10:25:28.368Z,53.47
2023-02-11T10:27:57.644Z,45.88
2023-02-11T10:30:39.073Z,46.97
2023-02-11T10:33:12.523Z,46.95
2023-02-11T10:35:40.235Z,47.33
2023-02-11T10:38:09.369Z,40.50
2023-02-11T10:40:36.696Z,47.90
2023-02-11T10:43:10.860Z,49.75
2023-02-11T10:45:46.975Z,49.90
2023-02-11T10:48:33.286Z,42.45
2023-02-11T10:51:09.622Z,42.10
2023-02-11T10:53:37.099Z,49.38
2023-02-11T10:56:04.980Z,39.65
2023-02-11T10:58:36.573Z,50.03
2023-02-11T11:01:12.895Z,45.75
2023-02-11T11:03:47.847Z,45.13
2023-02-11T11:06:15.322Z,43.78
2023-02-11T11:08:44.461Z,42.40
2023-02-11T11:11:18.954Z,44.70
2023-02-11T11:14:03.272Z,53.05
2023-02-11T11:16:30.639Z,46.63
2023-02-11T11:19:07.149Z,43.03
2023-02-11T11:21:42.486Z,49.80
2023-02-11T11:24:31.401Z,39.38
2023-02-11T11:27:03.166Z,47.20
2023-02-11T11:29:35.590Z,40.83
2023-02-11T11:32:05.514Z,47.90
2023-02-11T11:34:34.436Z,46.20
2023-02-11T11:37:10.428Z,38.08
2023-02-11T11:39:37.854Z,38.92
2023-02-11T11:42:06.292Z,40.42
2023-02-11T11:44:37.658Z,33.72
2023-02-11T11:47:16.465Z,53.75
2023-02-11T11:49:54.644Z,43.75
2023-02-11T11:52:22.026Z,39.95
2023-02-11T11:54:53.766Z,41.38
2023-02-11T11:57:25.179Z,43.35
2023-02-11T11:59:52.602Z,39.33
2023-02-11T12:02:46.521Z,41.83
2023-02-11T12:05:26.754Z,41.25
2023-02-11T12:08:16.901Z,44.72
2023-02-11T12:11:05.979Z,43.50
2023-02-11T12:13:36.367Z,36.75
2023-02-11T12:16:14.196Z,40.72
2023-02-11T12:18:44.931Z,38.90
2023-02-11T12:24:07.318Z,37.70
2023-02-11T12:26:40.819Z,40.03
2023-02-11T12:29:08.140Z,41.88
2023-02-11T12:31:38.639Z,35.38
2023-02-11T12:34:15.421Z,36.92
2023-02-11T12:36:43.135Z,36.75
2023-02-11T12:39:10.608Z,39.60
2023-02-11T12:42:10.939Z,35.03
2023-02-11T12:44:51.835Z,34.50
2023-02-11T12:47:31.868Z,40.67
2023-02-11T12:50:18.610Z,32.15
2023-02-11T12:52:51.788Z,45.65
2023-02-11T12:55:27.445Z,37.03
2023-02-11T12:57:57.282Z,41.08
2023-02-11T13:00:26.054Z,36.70
2023-02-11T13:02:56.493Z,38.42
2023-02-11T13:05:26.104Z,37.97
2023-02-11T13:07:55.871Z,35.38
2023-02-11T13:10:23.127Z,33.35
2023-02-11T13:13:09.647Z,35.63
2023-02-11T13:15:37.235Z,33.17
2023-02-11T13:18:19.260Z,34.70
2023-02-11T13:23:23.130Z,31.88
2023-02-11T13:25:53.746Z,32.95
2023-02-11T13:28:27.205Z,33.28
2023-02-11T13:31:02.616Z,33.20
2023-02-11T13:33:43.504Z,34.67
2023-02-11T13:36:12.488Z,30.50
2023-02-11T13:38:40.063Z,39.50
2023-02-11T13:41:15.595Z,38.45
2023-02-11T13:43:43.130Z,30.48
2023-02-11T13:46:12.531Z,33.25
2023-02-11T13:48:46.241Z,36.08
2023-02-11T13:51:14.948Z,39.05
2023-02-11T13:53:51.018Z,36.13
2023-02-11T13:56:38.187Z,30.88
2023-02-11T13:59:07.094Z,32.40
2023-02-11T14:01:41.712Z,31.35
2023-02-11T14:04:47.987Z,39.60
2023-02-11T14:07:47.209Z,37.15
2023-02-11T14:10:33.564Z,32.03
2023-02-11T14:13:20.798Z,37.20
2023-02-11T14:15:48.114Z,37.83
2023-02-11T14:18:37.250Z,31.08
2023-02-11T14:21:14.580Z,37.38
2023-02-11T14:23:42.382Z,30.92
2023-02-11T14:26:30.073Z,35.00
2023-02-11T14:29:16.349Z,34.50
2023-02-11T14:32:06.788Z,34.53
2023-02-11T14:34:58.145Z,36.47
2023-02-11T14:37:37.730Z,37.33
2023-02-11T14:40:05.087Z,30.70
2023-02-11T14:42:32.472Z,37.88
2023-02-11T14:45:04.912Z,35.00
2023-02-11T14:47:41.069Z,35.13
2023-02-11T14:50:15.218Z,34.30
2023-02-11T14:52:43.505Z,37.67
2023-02-11T14:55:19.992Z,33.53
2023-02-11T14:57:49.567Z,35.75
2023-02-11T15:00:18.522Z,35.22
2023-02-11T15:02:46.146Z,40.15
2023-02-11T15:05:19.049Z,36.65
2023-02-11T15:07:51.036Z,37.15
2023-02-11T15:10:31.129Z,37.25
2023-02-11T15:12:59.047Z,33.53
2023-02-11T15:15:26.937Z,39.75
2023-02-11T15:20:50.572Z,31.98
2023-02-11T15:23:27.414Z,34.20
2023-02-11T15:25:57.728Z,36.03
2023-02-11T15:28:49.193Z,33.10
2023-02-11T15:31:18.256Z,31.95
2023-02-11T15:33:46.111Z,30.10
2023-02-11T15:36:14.199Z,27.75
2023-02-11T15:38:41.656Z,32.30
2023-02-11T15:41:09.644Z,33.55
2023-02-11T15:43:51.093Z,28.45
2023-02-11T15:46:20.932Z,32.92
2023-02-11T15:48:50.030Z,30.60
2023-02-11T15:51:22.037Z,31.17
2023-02-11T15:53:53.167Z,33.97
2023-02-11T15:56:25.083Z,37.30
2023-02-11T15:58:53.463Z,37.33
2023-02-11T16:01:30.421Z,46.63
2023-02-11T16:03:59.316Z,34.05
2023-02-11T16:06:29.447Z,29.80
2023-02-11T16:09:01.294Z,29.20
2023-02-11T16:11:31.939Z,31.95
2023-02-11T16:14:00.683Z,33.00
2023-02-11T16:16:29.403Z,27.92
2023-02-11T16:19:04.794Z,35.75
2023-02-11T16:21:40.056Z,30.23
2023-02-11T16:24:08.730Z,33.33
2023-02-11T16:26:40.904Z,42.20
2023-02-11T16:29:16.429Z,34.60
2023-02-11T16:31:45.502Z,32.58
2023-02-11T16:34:23.215Z,32.17
2023-02-11T16:36:51.619Z,30.17
2023-02-11T16:39:22.429Z,34.40
2023-02-11T16:41:53.322Z,39.25
2023-02-11T16:44:20.872Z,35.25
2023-02-11T16:46:48.518Z,36.15
2023-02-11T16:49:19.141Z,34.90
2023-02-11T16:51:47.757Z,35.58
2023-02-11T16:54:16.299Z,35.47
2023-02-11T16:56:44.225Z,39.47
2023-02-11T16:59:11.988Z,36.35
2023-02-11T17:01:39.980Z,35.97
2023-02-11T17:04:08.187Z,36.20
2023-02-11T17:06:35.786Z,34.70
2023-02-11T17:09:03.395Z,34.03
2023-02-11T17:11:30.844Z,42.63
2023-02-11T17:13:58.204Z,40.15
2023-02-11T17:16:27.696Z,38.65
2023-02-11T17:18:55.117Z,39.33
2023-02-11T17:21:27.562Z,36.58
2023-02-11T17:23:56.182Z,43.30
2023-02-11T17:26:23.536Z,42.80
2023-02-11T17:28:51.183Z,52.63
2023-02-11T17:31:18.843Z,70.57
2023-02-11T17:33:47.408Z,118.97
2023-02-11T17:36:14.851Z,156.20
2023-02-11T17:38:42.201Z,103.18
2023-02-11T17:41:09.593Z,96.50
2023-02-11T17:43:37.291Z,89.35
2023-02-11T17:46:08.604Z,57.72
2023-02-11T17:48:38.484Z,60.83
2023-02-11T17:51:10.663Z,58.97
2023-02-11T17:53:38.123Z,50.13
2023-02-11T17:56:07.214Z,43.35
2023-02-11T17:58:34.723Z,43.40
2023-02-11T18:01:02.152Z,37.58
2023-02-11T18:03:29.812Z,43.20
2023-02-11T18:06:04.439Z,39.70
2023-02-11T18:08:32.766Z,39.60
2023-02-11T18:11:00.830Z,35.53
2023-02-11T18:13:28.971Z,39.45
2023-02-11T18:15:56.448Z,42.30
2023-02-11T18:18:24.058Z,34.78
2023-02-11T18:20:58.300Z,38.35
2023-02-11T18:23:25.911Z,40.65
2023-02-11T18:25:53.519Z,55.85
2023-02-11T18:28:21.116Z,63.38
2023-02-11T18:30:57.534Z,65.68
2023-02-11T18:33:29.434Z,59.90
2023-02-11T18:35:59.757Z,52.67
2023-02-11T18:38:27.298Z,49.25
2023-02-11T18:40:57.767Z,58.35
2023-02-11T18:43:25.103Z,52.72
2023-02-11T18:45:52.732Z,56.60
2023-02-11T18:48:20.496Z,55.40
2023-02-11T18:50:47.890Z,50.38
2023-02-11T18:53:18.400Z,51.83
2023-02-11T18:55:46.472Z,46.25
2023-02-11T18:58:15.245Z,47.03
2023-02-11T19:00:44.086Z,44.17
2023-02-11T19:03:11.539Z,41.97
2023-02-11T19:05:43.003Z,46.17
2023-02-11T19:08:10.594Z,45.40
2023-02-11T19:10:44.694Z,46.90
2023-02-11T19:13:12.463Z,49.30
2023-02-11T19:15:43.416Z,49.15
2023-02-11T19:18:12.674Z,47.15
2023-02-11T19:20:43.710Z,43.55
2023-02-11T19:23:13.024Z,41.00
2023-02-11T19:25:45.576Z,40.78
2023-02-11T19:28:13.487Z,41.75
2023-02-11T19:30:41.086Z,36.13
2023-02-11T19:33:10.331Z,35.90
2023-02-11T19:35:37.832Z,40.08
2023-02-11T19:38:05.770Z,41.90
2023-02-11T19:40:33.359Z,36.47
2023-02-11T19:43:00.757Z,37.17
2023-02-11T19:45:28.333Z,39.60
2023-02-11T19:47:57.098Z,34.67
2023-02-11T19:50:24.609Z,31.38
2023-02-11T19:52:52.029Z,36.53
2023-02-11T19:55:19.495Z,39.50
2023-02-11T19:57:46.966Z,33.92
2023-02-11T20:00:15.023Z,37.55
2023-02-11T20:02:42.391Z,36.60
2023-02-11T20:05:10.023Z,35.78
2023-02-11T20:07:37.726Z,34.92
2023-02-11T20:10:05.626Z,43.88
2023-02-11T20:12:33.148Z,39.47
2023-02-11T20:15:00.629Z,37.90
2023-02-11T20:17:28.454Z,39.13
2023-02-11T20:19:55.987Z,33.92
2023-02-11T20:22:24.250Z,34.90
2023-02-11T20:24:51.647Z,32.60
2023-02-11T20:27:20.143Z,31.73
2023-02-11T20:29:47.626Z,34.28
2023-02-11T20:32:15.354Z,37.17
2023-02-11T20:34:42.792Z,41.35
2023-02-11T20:37:10.490Z,36.92
2023-02-11T20:39:40.917Z,35.00
2023-02-11T20:42:12.210Z,36.83
2023-02-11T20:44:39.652Z,30.73
2023-02-11T20:47:07.091Z,37.03
2023-02-11T20:49:34.610Z,37.28
2023-02-11T20:52:04.285Z,37.20
2023-02-11T20:54:32.064Z,41.28
2023-02-11T20:56:59.752Z,41.30
2023-02-11T20:59:27.476Z,43.80
2023-02-11T21:01:56.234Z,44.20
2023-02-11T21:04:25.366Z,39.78
2023-02-11T21:06:54.465Z,39.08
2023-02-11T21:09:23.107Z,40.72
2023-02-11T21:11:54.384Z,42.47
2023-02-11T21:14:22.322Z,46.15
2023-02-11T21:16:53.203Z,47.47
2023-02-11T21:19:21.216Z,44.67
2023-02-11T21:21:48.721Z,44.15
2023-02-11T21:24:16.226Z,47.17
2023-02-11T21:26:43.575Z,45.03
2023-02-11T21:29:11.970Z,44.55
2023-02-11T21:31:39.755Z,44.83
2023-02-11T21:34:07.389Z,42.10
2023-02-11T21:36:34.837Z,41.35
2023-02-11T21:39:03.807Z,40.83
2023-02-11T21:41:31.278Z,37.70
2023-02-11T21:43:58.728Z,41.83
2023-02-11T21:46:28.201Z,43.20
2023-02-11T21:48:56.266Z,39.40
2023-02-11T21:51:25.431Z,36.80
2023-02-11T21:53:54.116Z,39.50
2023-02-11T21:56:21.507Z,39.35
2023-02-11T21:58:52.013Z,41.92
2023-02-11T22:01:20.508Z,39.55
2023-02-11T22:03:48.042Z,39.55
2023-02-11T22:06:17.493Z,40.88
2023-02-11T22:08:45.223Z,36.75
2023-02-11T22:11:13.215Z,41.60
2023-02-11T22:13:40.808Z,37.40
2023-02-11T22:16:10.147Z,36.97
2023-02-11T22:18:37.563Z,37.63
2023-02-11T22:21:06.461Z,35.58
2023-02-11T22:23:34.656Z,36.88
2023-02-11T22:26:07.458Z,43.67
2023-02-11T22:28:37.222Z,40.78
2023-02-11T22:31:04.655Z,40.75
2023-02-11T22:33:34.283Z,43.03
2023-02-11T22:36:05.950Z,46.22
2023-02-11T22:38:33.739Z,40.80
2023-02-11T22:41:05.937Z,43.50
2023-02-11T22:43:33.371Z,41.38
2023-02-11T22:46:01.697Z,33.78
2023-02-11T22:48:29.233Z,36.95
2023-02-11T22:50:56.745Z,39.55
2023-02-11T22:53:25.528Z,37.80
2023-02-11T22:55:53.146Z,37.60
2023-02-11T22:58:20.611Z,42.40
2023-02-11T23:00:47.964Z,41.08
2023-02-11T23:03:17.834Z,38.15
2023-02-11T23:05:45.142Z,31.17
2023-02-11T23:08:12.759Z,34.97
2023-02-11T23:10:40.186Z,37.70
2023-02-11T23:13:10.267Z,39.17
2023-02-11T23:15:41.698Z,37.13
2023-02-11T23:18:09.771Z,39.35
2023-02-11T23:20:38.065Z,38.85
2023-02-11T23:23:05.972Z,36.55
2023-02-11T23:25:33.775Z,38.70
2023-02-11T23:28:02.003Z,34.25
2023-02-11T23:30:29.413Z,33.70
2023-02-11T23:32:56.801Z,35.92
2023-02-11T23:35:24.860Z,37.03
2023-02-11T23:37:53.076Z,35.28
2023-02-11T23:40:21.753Z,37.15
2023-02-11T23:42:49.162Z,31.98
2023-02-11T23:45:16.883Z,32.58
2023-02-11T23:48:09.559Z,39.25
2023-02-11T23:50:39.604Z,35.78
2023-02-11T23:53:07.006Z,32.10
2023-02-11T23:55:39.901Z,39.88
2023-02-11T23:58:07.419Z,35.83
